Data for 05/15/2007

Time Sea-Level Adjusted Pressure Absolute Pressure Temperature Relative Humidity Dew Point   
(mb) (inHg) (mb) (inHg) (C) (F) (%) (C) (F)
00:05 1027 30.33 857 25.31 6.1 43 65 0.1 32.2
00:10 1027 30.33 857 25.31 6.1 42.9 65 0.1 32.2
00:15 1027 30.33 857 25.31 6 42.7 65 -0 31.9
00:20 1027 30.33 857 25.31 5.9 42.7 65 -0 31.9
00:25 1027 30.33 857 25.31 5.9 42.6 66 -0.1 31.9
00:30 1027 30.33 857 25.31 5.9 42.5 66 -0.1 31.9
00:35 1027 30.33 857 25.31 5.8 42.4 65 -0.2 31.7
00:40 1027 30.33 857 25.31 5.7 42.3 65 -0.2 31.6
00:45 1027 30.33 857 25.31 5.7 42.3 66 -0.2 31.7
00:50 1027 30.33 857 25.31 5.7 42.2 66 -0.2 31.7
00:55 1027 30.33 857 25.31 5.7 42.2 66 -0.2 31.6
01:00 1027 30.33 856 25.28 5.7 42.2 65 -0.3 31.5
01:05 1027 30.33 856 25.28 5.7 42.3 65 -0.3 31.4
01:10 1027 30.33 856 25.28 5.7 42.2 65 -0.4 31.3
01:15 1027 30.33 856 25.28 5.7 42.2 65 -0.4 31.3
01:20 1027 30.33 856 25.28 5.6 42.1 65 -0.4 31.3
01:25 1027 30.33 856 25.28 5.5 42 66 -0.3 31.4
01:30 1027 30.33 856 25.28 5.5 41.9 66 -0.4 31.2
01:35 1027 30.33 856 25.28 5.5 41.9 65 -0.5 31.1
01:40 1027 30.33 856 25.28 5.6 42 65 -0.5 31.1
01:45 1027 30.33 856 25.28 5.5 42 65 -0.5 31.1
01:50 1027 30.33 856 25.28 5.5 41.9 65 -0.5 31.1
01:55 1027 30.33 856 25.28 5.4 41.8 66 -0.5 31.1
02:00 1027 30.33 856 25.28 5.3 41.6 66 -0.5 31
02:05 1027 30.33 856 25.28 5.4 41.7 66 -0.5 31.1
02:10 1027 30.33 856 25.28 5.3 41.6 66 -0.5 31.1
02:15 1027 30.33 856 25.28 5.2 41.4 66 -0.5 31
02:20 1027 30.33 856 25.28 5.1 41.2 67 -0.5 31.1
02:25 1027 30.33 856 25.28 5 41 67 -0.5 31.1
02:30 1027 30.33 856 25.28 5 40.9 67 -0.6 31
02:35 1027 30.33 856 25.28 4.9 40.8 68 -0.6 31
02:40 1027 30.33 856 25.28 4.8 40.6 68 -0.6 31
02:45 1027 30.33 856 25.28 4.7 40.4 69 -0.6 30.9
02:50 1027 30.33 856 25.28 4.7 40.4 69 -0.5 31.2
02:55 1027 30.33 856 25.28 4.5 40.1 70 -0.6 31
03:00 1027 30.33 856 25.28 4.4 40 70 -0.5 31.1
03:05 1027 30.33 856 25.28 4.3 39.8 71 -0.5 31
03:10 1027 30.33 856 25.28 4.2 39.5 72 -0.5 31.2
03:15 1027 30.33 856 25.28 4.1 39.4 73 -0.4 31.3
03:20 1027 30.33 856 25.28 4 39.1 73 -0.5 31.1
03:25 1027 30.33 856 25.28 3.9 39.1 72 -0.6 30.9
03:30 1027 30.33 856 25.28 4 39.2 72 -0.6 31
03:35 1027 30.33 856 25.28 4.1 39.4 71 -0.6 30.8
03:40 1027 30.33 856 25.28 4.1 39.5 71 -0.6 30.9
03:45 1027 30.33 856 25.28 4.2 39.5 71 -0.6 31
03:50 1027 30.33 856 25.28 4.1 39.4 71 -0.6 30.8
03:55 1027 30.33 856 25.28 4.1 39.4 72 -0.6 31
04:00 1027 30.33 856 25.28 4.1 39.3 71 -0.6 30.8
04:05 1027 30.33 856 25.28 4.1 39.3 72 -0.6 30.9
04:10 1027 30.33 856 25.28 4.1 39.5 71 -0.6 30.9
04:15 1027 30.33 856 25.28 4 39.3 72 -0.6 31
04:20 1027 30.33 856 25.28 3.9 39 72 -0.7 30.7
04:25 1027 30.33 856 25.28 4 39.1 72 -0.7 30.8
04:30 1027 30.33 856 25.28 3.7 38.7 73 -0.6 30.9
04:35 1027 30.33 856 25.28 3.6 38.5 74 -0.6 30.8
04:40 1027 30.33 856 25.28 3.5 38.3 74 -0.8 30.6
04:45 1027 30.33 856 25.28 3.6 38.4 74 -0.6 30.9
04:50 1027 30.33 856 25.28 3.6 38.5 73 -0.8 30.6
04:55 1027 30.33 856 25.28 3.8 38.9 72 -0.7 30.7
05:00 1027 30.33 856 25.28 4 39.2 72 -0.7 30.8
05:05 1027 30.33 856 25.28 4 39.1 72 -0.7 30.8
05:10 1027 30.33 856 25.28 4 39.1 72 -0.7 30.8
05:15 1027 30.33 856 25.28 4 39.2 72 -0.6 30.9
05:20 1027 30.33 856 25.28 4 39.1 72 -0.7 30.8
05:25 1027 30.33 856 25.28 3.9 39 72 -0.7 30.8
05:30 1027 30.33 856 25.28 3.9 39 72 -0.7 30.8
05:35 1027 30.33 856 25.28 3.8 38.8 73 -0.6 30.9
05:40 1027 30.33 856 25.28 3.6 38.4 74 -0.7 30.7
05:45 1026 30.3 856 25.28 3.3 38 75 -0.7 30.8
05:50 1026 30.3 856 25.28 3.2 37.7 75 -0.8 30.6
05:55 1026 30.3 856 25.28 3.2 37.7 76 -0.8 30.6
06:00 1026 30.3 856 25.28 3 37.4 76 -0.8 30.6
06:05 1026 30.3 856 25.28 2.9 37.2 76 -0.9 30.4
06:10 1026 30.3 856 25.28 3.1 37.5 75 -1 30.2
06:15 1026 30.3 856 25.28 3.4 38 73 -0.9 30.3
06:20 1026 30.3 856 25.28 3.6 38.4 73 -0.8 30.5
06:25 1026 30.3 856 25.28 3.6 38.6 73 -0.8 30.6
06:30 1026 30.3 856 25.28 3.6 38.5 73 -0.8 30.6
06:35 1026 30.3 856 25.28 3.6 38.5 74 -0.7 30.8
06:40 1026 30.3 856 25.28 3.5 38.2 74 -0.6 30.8
06:45 1027 30.33 856 25.28 3.3 37.9 76 -0.6 30.9
06:50 1027 30.33 856 25.28 3.3 37.9 75 -0.7 30.7
06:55 1027 30.33 856 25.28 3.4 38 76 -0.5 31
07:00 1027 30.33 856 25.28 3.4 38.1 75 -0.6 30.9
07:05 1027 30.33 856 25.28 3.5 38.3 75 -0.5 31.2
07:10 1027 30.33 856 25.28 3.9 39 73 -0.5 31.1
07:15 1027 30.33 856 25.28 4.4 39.9 71 -0.4 31.3
07:20 1027 30.33 856 25.28 4.7 40.4 70 -0.3 31.5
07:25 1027 30.33 856 25.28 4.9 40.8 69 -0.3 31.5
07:30 1027 30.33 856 25.28 5.2 41.3 68 -0.1 31.8
07:35 1027 30.33 856 25.28 5.6 42.1 67 0 32.1
07:40 1027 30.33 856 25.28 5.7 42.3 67 0 32.1
07:45 1027 30.33 856 25.28 6 42.7 67 0.2 32.4
07:50 1027 30.33 856 25.28 6.1 42.9 66 0.2 32.4
07:55 1027 30.33 856 25.28 6.5 43.7 65 0.3 32.5
08:00 1027 30.33 856 25.28 6.7 44 63 0.1 32.2
08:05 1026 30.3 856 25.28 6.7 44.1 61 -0.2 31.7
08:10 1026 30.3 856 25.28 7 44.7 61 0.1 32.1
08:15 1026 30.3 856 25.28 7.3 45.2 61 0.3 32.5
08:20 1026 30.3 856 25.28 7.6 45.7 61 0.6 33
08:25 1026 30.3 856 25.28 7.2 44.9 62 0.5 32.8
08:30 1026 30.3 856 25.28 7.4 45.4 62 0.7 33.2
08:35 1026 30.3 856 25.28 8.2 46.8 57 0.2 32.3
08:40 1026 30.3 856 25.28 8.3 46.9 55 -0.3 31.5
08:45 1026 30.3 856 25.28 9 48.2 53 -0.1 31.8
08:50 1026 30.3 856 25.28 8.8 47.8 54 0.1 32.2
08:55 1026 30.3 856 25.28 8.8 47.8 53 -0.2 31.6
09:00 1026 30.3 856 25.28 9.2 48.5 52 -0.1 31.9
09:05 1026 30.3 856 25.28 9.5 49.1 52 0.3 32.5
09:10 1026 30.3 855 25.25 9.7 49.4 52 0.2 32.4
09:15 1026 30.3 855 25.25 9.9 49.8 53 0.7 33.3
09:20 1026 30.3 855 25.25 10.7 51.2 51 1 33.9
09:25 1026 30.3 855 25.25 11.2 52.1 50 1.2 34.2
09:30 1026 30.3 855 25.25 10.7 51.3 51 1.2 34.1
09:35 1026 30.3 855 25.25 10.5 50.9 53 1.5 34.7
09:40 1026 30.3 855 25.25 10 50.1 53 0.9 33.7
09:45 1026 30.3 855 25.25 10.3 50.5 54 1.4 34.5
09:50 1026 30.3 855 25.25 11.1 52 53 2 35.5
09:55 1026 30.3 855 25.25 10.7 51.2 53 1.6 34.9
10:00 1026 30.3 855 25.25 11.5 52.7 50 1.5 34.7
10:05 1026 30.3 855 25.25 12.2 53.9 49 2 35.5
10:10 1026 30.3 855 25.25 12.4 54.3 51 2.5 36.6
10:15 1026 30.3 855 25.25 11 51.8 57 2.8 37
10:20 1026 30.3 855 25.25 10.9 51.7 56 2.6 36.7
10:25 1026 30.3 855 25.25 11.6 52.9 53 2.4 36.4
10:30 1026 30.3 855 25.25 12.2 54 54 3.2 37.8
10:35 1026 30.3 855 25.25 12.7 54.8 50 2.5 36.5
10:40 1026 30.3 855 25.25 13 55.4 51 3.1 37.6
10:45 1026 30.3 855 25.25 12.9 55.2 51 3 37.4
10:50 1026 30.3 855 25.25 13 55.3 51 3 37.5
10:55 1026 30.3 855 25.25 13.3 55.9 50 3.2 37.8
11:00 1026 30.3 855 25.25 12.7 54.9 53 3.3 38
11:05 1026 30.3 855 25.25 12.9 55.2 50 2.8 37.1
11:10 1026 30.3 855 25.25 13.4 56 50 3.3 38
11:15 1026 30.3 855 25.25 14.1 57.4 46 2.7 36.8
11:20 1026 30.3 855 25.25 14.8 58.6 45 3.1 37.5
11:25 1026 30.3 855 25.25 15.2 59.3 44 3.3 37.9
11:30 1026 30.3 855 25.25 14.2 57.5 48 3.3 38
11:35 1025 30.27 855 25.25 13.7 56.6 46 2.2 36
11:40 1025 30.27 855 25.25 14.9 58.8 43 2.6 36.7
11:45 1025 30.27 855 25.25 14.4 57.9 44 2.2 36
11:50 1025 30.27 855 25.25 13.9 57.1 45 2.2 36
11:55 1025 30.27 855 25.25 13.3 55.9 47 2.3 36.2
12:00 1025 30.27 855 25.25 14.3 57.8 43 2.1 35.8
12:05 1025 30.27 855 25.25 14.5 58 40 1.3 34.3
12:10 1025 30.27 855 25.25 15.5 59.9 38 1.4 34.5
12:15 1025 30.27 854 25.22 16 60.8 37 1.6 34.9
12:20 1025 30.27 854 25.22 15.9 60.6 36 1.1 33.9
12:25 1025 30.27 854 25.22 15.7 60.3 39 1.8 35.3
12:30 1025 30.27 854 25.22 15.8 60.4 38 1.7 35.1
12:35 1025 30.27 854 25.22 16.8 62.2 36 1.6 34.9
12:40 1025 30.27 854 25.22 16.4 61.5 40 2.8 37
12:45 1025 30.27 854 25.22 14.8 58.7 41 1.8 35.3
12:50 1025 30.27 854 25.22 15.2 59.4 39 1.4 34.5
12:55 1025 30.27 854 25.22 16.4 61.4 36 1.4 34.6
13:00 1025 30.27 854 25.22 16.2 61.1 37 1.5 34.7
13:05 1025 30.27 854 25.22 16.3 61.3 39 2.3 36.2
13:10 1025 30.27 854 25.22 16.8 62.3 35 1.4 34.5
13:15 1025 30.27 854 25.22 17.3 63.1 34 1.3 34.3
13:20 1025 30.27 854 25.22 17.1 62.7 38 2.7 36.8
13:25 1025 30.27 854 25.22 17.5 63.5 33 1.2 34.1
13:30 1025 30.27 854 25.22 18.4 65.2 32 1.4 34.5
13:35 1025 30.27 854 25.22 17.5 63.4 34 1.7 35
13:40 1025 30.27 854 25.22 17 62.5 35 1.5 34.6
13:45 1025 30.27 854 25.22 18 64.3 32 1.2 34.1
13:50 1025 30.27 854 25.22 17.5 63.4 33 1.2 34.1
13:55 1025 30.27 854 25.22 18 64.3 33 1.4 34.6
14:00 1024 30.24 854 25.22 18.6 65.5 31 1.5 34.7
14:05 1024 30.24 854 25.22 19 66.2 31 1.8 35.2
14:10 1024 30.24 854 25.22 18.9 66 31 1.7 35.1
14:15 1024 30.24 854 25.22 18.3 65 32 1.6 35
14:20 1024 30.24 854 25.22 18.3 64.9 28 -0.2 31.7
14:25 1024 30.24 853 25.19 19.2 66.5 27 -0.4 31.4
14:30 1024 30.24 853 25.19 19.8 67.6 26 0.1 32.3
14:35 1024 30.24 853 25.19 20 68.1 25 -0.6 31
14:40 1024 30.24 853 25.19 18.9 66.1 26 -0.6 30.9
14:45 1024 30.24 853 25.19 19.6 67.3 25 -0.7 30.7
14:50 1024 30.24 853 25.19 20.3 68.6 25 -0.1 31.7
14:55 1024 30.24 853 25.19 20.6 69 23 -0.9 30.3
15:00 1024 30.24 853 25.19 19.3 66.8 26 -0.8 30.6
15:05 1024 30.24 853 25.19 19.5 67.1 26 -0.5 31
15:10 1024 30.24 853 25.19 19.8 67.6 26 -0.3 31.4
15:15 1024 30.24 853 25.19 19.5 67.2 24 -1.4 29.5
15:20 1024 30.24 853 25.19 20.5 68.9 24 -0.5 31.2
15:25 1024 30.24 853 25.19 20.8 69.4 23 -1 30.3
15:30 1023 30.21 853 25.19 20.7 69.2 23 -1 30.1
15:35 1023 30.21 853 25.19 20.6 69 22 -1.5 29.3
15:40 1023 30.21 853 25.19 20.7 69.2 23 -1.1 30
15:45 1023 30.21 853 25.19 20.7 69.3 23 -1.2 29.8
15:50 1023 30.21 853 25.19 20.6 69 22 -1.9 28.6
15:55 1023 30.21 852 25.16 20.9 69.6 22 -1.2 29.9
16:00 1023 30.21 852 25.16 20.7 69.2 24 -0.3 31.4
16:05 1023 30.21 852 25.16 20.8 69.4 22 -1.8 28.7
16:10 1023 30.21 852 25.16 20.7 69.3 22 -1.5 29.4
16:15 1023 30.21 852 25.16 20.2 68.3 24 -1 30.2
16:20 1023 30.21 852 25.16 19.9 67.9 24 -1.4 29.6
16:25 1023 30.21 852 25.16 19.9 67.8 23 -1.7 28.9
16:30 1023 30.21 852 25.16 20 68.1 23 -1.8 28.7
16:35 1023 30.21 852 25.16 20.7 69.2 22 -1.8 28.8
16:40 1023 30.21 852 25.16 20.5 68.9 23 -1.4 29.4
16:45 1023 30.21 852 25.16 20 68.1 23 -1.4 29.5
16:50 1023 30.21 852 25.16 20.6 69.1 22 -1.6 29
16:55 1023 30.21 852 25.16 20.5 69 23 -1.4 29.5
17:00 1023 30.21 852 25.16 20.9 69.6 21 -1.9 28.6
17:05 1023 30.21 852 25.16 20.8 69.4 22 -1.5 29.2
17:10 1023 30.21 852 25.16 19.7 67.4 21 -3 26.5
17:15 1023 30.21 852 25.16 19.5 67.2 22 -2.4 27.7
17:20 1023 30.21 852 25.16 20.3 68.5 21 -2.7 27.1
17:25 1023 30.21 852 25.16 20.8 69.5 20 -3 26.6
17:30 1023 30.21 852 25.16 21.5 70.6 20 -2.4 27.7
17:35 1023 30.21 852 25.16 21 69.8 20 -2.7 27.1
17:40 1023 30.21 852 25.16 19.7 67.5 21 -3.3 26
17:45 1023 30.21 852 25.16 19.4 66.9 20 -4 24.8
17:50 1023 30.21 852 25.16 19.6 67.3 20 -3.6 25.4
17:55 1023 30.21 852 25.16 19.7 67.5 20 -3.6 25.5
18:00 1023 30.21 852 25.16 19.6 67.3 19 -4.2 24.5
18:05 1023 30.21 852 25.16 20 68 19 -3.8 25.1
18:10 1023 30.21 852 25.16 19.8 67.6 20 -3.6 25.6
18:15 1023 30.21 852 25.16 20.3 68.6 19 -3.8 25.2
18:20 1023 30.21 852 25.16 20.5 68.8 18 -4.3 24.2
18:25 1022 30.18 852 25.16 20.7 69.2 18 -4.3 24.2
18:30 1022 30.18 852 25.16 20.3 68.5 19 -4.1 24.6
18:35 1022 30.18 852 25.16 20.8 69.4 18 -4.3 24.3
18:40 1022 30.18 852 25.16 21 69.8 18 -4.2 24.5
18:45 1022 30.18 851 25.13 21 69.9 18 -4.1 24.6
18:50 1022 30.18 851 25.13 20.3 68.5 19 -3.9 25
18:55 1022 30.18 851 25.13 20.2 68.3 19 -4.3 24.3
19:00 1022 30.18 851 25.13 20.5 69 17 -5 23
19:05 1022 30.18 851 25.13 20.5 69 19 -4.1 24.7
19:10 1022 30.18 851 25.13 20.2 68.3 19 -4.3 24.3
19:15 1022 30.18 851 25.13 19.8 67.7 19 -4.3 24.3
19:20 1022 30.18 851 25.13 19.8 67.7 18 -4.7 23.5
19:25 1022 30.18 851 25.13 19.9 67.9 17 -5.6 21.9
19:30 1022 30.18 851 25.13 19.7 67.5 18 -5.4 22.2
19:35 1022 30.18 851 25.13 19.3 66.7 16 -7.3 18.8
19:40 1022 30.18 851 25.13 19.1 66.4 16 -7.5 18.6
19:45 1022 30.18 851 25.13 19.1 66.3 17 -6.8 19.7
19:50 1022 30.18 851 25.13 18.5 65.3 32 1.4 34.6
19:55 1022 30.18 851 25.13 17.5 63.5 33 1.3 34.4
20:00 1022 30.18 851 25.13 17 62.6 34 1.2 34.2
20:05 1022 30.18 851 25.13 16.7 62.1 35 1.1 34
20:10 1022 30.18 851 25.13 16.5 61.6 35 1.1 34.1
20:15 1022 30.18 851 25.13 16.2 61.1 36 1.2 34.1
20:20 1022 30.18 851 25.13 16 60.7 37 1.4 34.6
20:25 1022 30.18 851 25.13 15.7 60.3 38 1.5 34.8
20:30 1022 30.18 851 25.13 15.6 60.1 38 1.3 34.3
20:35 1022 30.18 851 25.13 15.4 59.7 38 1.2 34.1
20:40 1022 30.18 851 25.13 15.3 59.5 38 1.1 33.9
20:45 1022 30.18 851 25.13 15 58.9 39 1.2 34.1
20:50 1022 30.18 851 25.13 14.8 58.7 39 1.2 34.2
20:55 1022 30.18 851 25.13 14.6 58.4 40 1.3 34.3
21:00 1022 30.18 851 25.13 14.5 58.1 40 1.2 34.1
21:05 1022 30.18 851 25.13 14.5 58 39 0.9 33.7
21:10 1022 30.18 851 25.13 14.4 58 40 1.1 34
21:15 1022 30.18 851 25.13 14.2 57.6 41 1.2 34.1
21:20 1022 30.18 852 25.16 14.2 57.6 40 0.9 33.6
21:25 1022 30.18 852 25.16 14.1 57.4 40 0.9 33.7
21:30 1022 30.18 852 25.16 14 57.3 40 0.7 33.3
21:35 1022 30.18 852 25.16 14 57.2 40 0.8 33.4
21:40 1022 30.18 852 25.16 13.8 56.9 41 1 33.8
21:45 1023 30.21 852 25.16 13.6 56.5 42 1.2 34.1
21:50 1023 30.21 852 25.16 13.5 56.2 43 1.2 34.2
21:55 1023 30.21 852 25.16 13.3 55.9 44 1.4 34.6
22:00 1023 30.21 852 25.16 13.1 55.6 45 1.5 34.8
22:05 1023 30.21 852 25.16 12.9 55.2 46 1.6 35
22:10 1023 30.21 852 25.16 12.7 54.9 47 1.7 35
22:15 1023 30.21 852 25.16 12.6 54.7 47 1.6 34.8
22:20 1023 30.21 852 25.16 12.7 54.8 46 1.5 34.7
22:25 1023 30.21 852 25.16 12.6 54.7 47 1.5 34.8
22:30 1023 30.21 852 25.16 12.5 54.5 47 1.6 34.8
22:35 1023 30.21 852 25.16 12.4 54.3 47 1.5 34.8
22:40 1023 30.21 852 25.16 12.3 54.1 48 1.5 34.8
22:45 1023 30.21 852 25.16 12.2 54 47 1.4 34.6
22:50 1023 30.21 852 25.16 12.2 54 47 1.4 34.5
22:55 1023 30.21 852 25.16 12.2 54 47 1.4 34.5
23:00 1023 30.21 852 25.16 12.1 53.8 48 1.4 34.5
23:05 1023 30.21 852 25.16 12 53.7 48 1.4 34.4
23:10 1023 30.21 852 25.16 12 53.5 48 1.5 34.7
23:15 1023 30.21 852 25.16 11.8 53.3 48 1.3 34.4
23:20 1023 30.21 852 25.16 11.8 53.3 48 1.2 34.1
23:25 1023 30.21 852 25.16 11.9 53.3 47 1.1 33.9
23:30 1023 30.21 852 25.16 11.9 53.3 48 1.1 34.1
23:35 1023 30.21 852 25.16 11.8 53.2 48 1 33.9
23:40 1023 30.21 852 25.16 11.7 53 48 1.1 34
23:45 1022 30.18 852 25.16 11.6 52.8 48 1.1 33.9
23:50 1022 30.18 852 25.16 11.4 52.6 49 1.1 34
23:55 1023 30.21 852 25.16 11.3 52.4 49 1 33.9
24:00 1022 30.18 852 25.16 11.3 52.3 49 1 33.8